sensor_id;sensor_type;location;lat;lon;timestamp;pressure;altitude;pressure_sealevel;temperature;humidity
25156;BME280;21913;52.456;13.634;2023-05-25T00:00:55;101211.75;;;15.02;74.61
25156;BME280;21913;52.456;13.634;2023-05-25T00:06:02;101202.19;;;15.03;74.67
25156;BME280;21913;52.456;13.634;2023-05-25T00:11:03;101203.94;;;15.02;74.60
25156;BME280;21913;52.456;13.634;2023-05-25T00:16:05;101200.44;;;15.03;74.65
25156;BME280;21913;52.456;13.634;2023-05-25T00:21:06;101198.72;;;15.02;74.61
25156;BME280;21913;52.456;13.634;2023-05-25T00:26:08;101198.72;;;15.02;74.79
25156;BME280;21913;52.456;13.634;2023-05-25T00:31:09;101196.97;;;15.01;74.74
25156;BME280;21913;52.456;13.634;2023-05-25T00:36:11;101196.09;;;15.02;74.58
25156;BME280;21913;52.456;13.634;2023-05-25T00:41:15;101196.13;;;15.01;74.79
25156;BME280;21913;52.456;13.634;2023-05-25T00:46:17;101200.47;;;15.02;74.43
25156;BME280;21913;52.456;13.634;2023-05-25T00:51:19;101197.81;;;15.00;74.81
25156;BME280;21913;52.456;13.634;2023-05-25T00:56:23;101189.16;;;14.99;74.48
25156;BME280;21913;52.456;13.634;2023-05-25T01:01:27;101192.63;;;15.00;74.64
25156;BME280;21913;52.456;13.634;2023-05-25T01:06:31;101184.78;;;15.00;74.70
25156;BME280;21913;52.456;13.634;2023-05-25T01:11:35;101186.53;;;14.99;74.58
25156;BME280;21913;52.456;13.634;2023-05-25T01:16:37;101197.81;;;15.00;74.51
25156;BME280;21913;52.456;13.634;2023-05-25T01:26:54;101191.75;;;14.99;74.34
25156;BME280;21913;52.456;13.634;2023-05-25T01:31:58;101194.34;;;14.99;74.47
25156;BME280;21913;52.456;13.634;2023-05-25T01:36:59;101195.22;;;14.98;74.49
25156;BME280;21913;52.456;13.634;2023-05-25T01:42:01;101190.88;;;14.99;74.54
25156;BME280;21913;52.456;13.634;2023-05-25T01:52:29;101201.31;;;14.99;74.67
25156;BME280;21913;52.456;13.634;2023-05-25T01:57:35;101209.13;;;14.99;74.43
25156;BME280;21913;52.456;13.634;2023-05-25T02:02:43;101210.00;;;14.98;74.42
25156;BME280;21913;52.456;13.634;2023-05-25T02:07:45;101210.00;;;14.98;74.60
25156;BME280;21913;52.456;13.634;2023-05-25T02:12:47;101209.13;;;14.97;74.41
25156;BME280;21913;52.456;13.634;2023-05-25T02:17:48;101198.72;;;14.97;74.62
25156;BME280;21913;52.456;13.634;2023-05-25T02:22:50;101205.66;;;14.97;74.54
25156;BME280;21913;52.456;13.634;2023-05-25T02:27:52;101205.66;;;14.97;74.54
25156;BME280;21913;52.456;13.634;2023-05-25T02:32:54;101204.78;;;14.96;74.39
25156;BME280;21913;52.456;13.634;2023-05-25T02:37:56;101210.88;;;14.97;74.61
25156;BME280;21913;52.456;13.634;2023-05-25T02:42:57;101207.41;;;14.96;74.30
25156;BME280;21913;52.456;13.634;2023-05-25T02:47:59;101203.06;;;14.97;74.41
25156;BME280;21913;52.456;13.634;2023-05-25T02:53:02;101206.53;;;14.96;74.76
25156;BME280;21913;52.456;13.634;2023-05-25T02:58:04;101211.75;;;14.96;74.55
25156;BME280;21913;52.456;13.634;2023-05-25T03:03:25;101209.13;;;14.93;74.50
25156;BME280;21913;52.456;13.634;2023-05-25T03:08:27;101212.59;;;14.95;74.73
25156;BME280;21913;52.456;13.634;2023-05-25T03:13:28;101218.69;;;14.95;74.56
25156;BME280;21913;52.456;13.634;2023-05-25T03:18:31;101216.09;;;14.95;74.74
25156;BME280;21913;52.456;13.634;2023-05-25T03:23:33;101225.63;;;14.95;74.51
25156;BME280;21913;52.456;13.634;2023-05-25T03:28:38;101230.84;;;14.95;74.43
25156;BME280;21913;52.456;13.634;2023-05-25T03:33:39;101237.78;;;14.94;74.74
25156;BME280;21913;52.456;13.634;2023-05-25T03:38:42;101237.81;;;14.96;74.23
25156;BME280;21913;52.456;13.634;2023-05-25T03:43:44;101243.00;;;14.94;74.57
25156;BME280;21913;52.456;13.634;2023-05-25T03:48:46;101248.22;;;14.94;74.60
25156;BME280;21913;52.456;13.634;2023-05-25T03:53:47;101247.34;;;14.94;74.49
25156;BME280;21913;52.456;13.634;2023-05-25T03:58:49;101255.16;;;14.94;74.65
25156;BME280;21913;52.456;13.634;2023-05-25T04:03:52;101256.03;;;14.93;74.36
25156;BME280;21913;52.456;13.634;2023-05-25T04:08:54;101259.50;;;14.93;74.54
25156;BME280;21913;52.456;13.634;2023-05-25T04:13:56;101262.97;;;14.94;74.61
25156;BME280;21913;52.456;13.634;2023-05-25T04:19:00;101262.97;;;14.94;74.61
25156;BME280;21913;52.456;13.634;2023-05-25T04:24:02;101271.66;;;14.93;74.60
25156;BME280;21913;52.456;13.634;2023-05-25T04:29:04;101269.06;;;14.93;74.50
25156;BME280;21913;52.456;13.634;2023-05-25T04:34:28;101270.81;;;14.92;74.28
25156;BME280;21913;52.456;13.634;2023-05-25T04:39:45;101277.75;;;14.92;74.39
25156;BME280;21913;52.456;13.634;2023-05-25T04:44:47;101276.00;;;14.92;74.40
25156;BME280;21913;52.456;13.634;2023-05-25T04:49:49;101281.22;;;14.92;74.29
25156;BME280;21913;52.456;13.634;2023-05-25T04:54:51;101289.03;;;14.92;74.37
25156;BME280;21913;52.456;13.634;2023-05-25T04:59:53;101298.59;;;14.92;74.57
25156;BME280;21913;52.456;13.634;2023-05-25T05:04:54;101301.19;;;14.92;74.40
25156;BME280;21913;52.456;13.634;2023-05-25T05:09:56;101307.28;;;14.91;74.49
25156;BME280;21913;52.456;13.634;2023-05-25T05:14:59;101313.38;;;14.91;74.64
25156;BME280;21913;52.456;13.634;2023-05-25T05:20:01;101315.09;;;14.91;74.60
25156;BME280;21913;52.456;13.634;2023-05-25T05:25:03;101319.44;;;14.92;74.32
25156;BME280;21913;52.456;13.634;2023-05-25T05:30:05;101330.75;;;14.91;74.41
25156;BME280;21913;52.456;13.634;2023-05-25T05:35:07;101329.00;;;14.91;74.47
25156;BME280;21913;52.456;13.634;2023-05-25T05:40:15;101335.09;;;14.90;74.61
25156;BME280;21913;52.456;13.634;2023-05-25T05:45:17;101346.38;;;14.91;74.52
25156;BME280;21913;52.456;13.634;2023-05-25T05:50:18;101348.97;;;14.91;74.45
25156;BME280;21913;52.456;13.634;2023-05-25T05:55:20;101357.69;;;14.90;74.33
25156;BME280;21913;52.456;13.634;2023-05-25T06:00:25;101372.41;;;14.89;74.49
25156;BME280;21913;52.456;13.634;2023-05-25T06:05:26;101364.63;;;14.91;74.48
25156;BME280;21913;52.456;13.634;2023-05-25T06:10:29;101370.69;;;14.90;74.45
25156;BME280;21913;52.456;13.634;2023-05-25T06:15:31;101372.41;;;14.89;74.72
25156;BME280;21913;52.456;13.634;2023-05-25T06:20:34;101375.88;;;14.88;74.41
25156;BME280;21913;52.456;13.634;2023-05-25T06:25:36;101382.84;;;14.89;74.43
25156;BME280;21913;52.456;13.634;2023-05-25T06:30:37;101384.56;;;14.89;74.59
25156;BME280;21913;52.456;13.634;2023-05-25T06:35:40;101381.09;;;14.88;74.56
25156;BME280;21913;52.456;13.634;2023-05-25T06:40:42;101389.78;;;14.89;74.56
25156;BME280;21913;52.456;13.634;2023-05-25T06:45:44;101399.38;;;14.90;74.54
25156;BME280;21913;52.456;13.634;2023-05-25T06:50:45;101403.69;;;14.89;74.77
25156;BME280;21913;52.456;13.634;2023-05-25T06:55:47;101408.03;;;14.89;74.81
25156;BME280;21913;52.456;13.634;2023-05-25T07:00:49;101402.81;;;14.89;74.81
25156;BME280;21913;52.456;13.634;2023-05-25T07:05:51;101403.69;;;14.88;74.79
25156;BME280;21913;52.456;13.634;2023-05-25T07:10:52;101413.22;;;14.89;74.81
25156;BME280;21913;52.456;13.634;2023-05-25T07:15:54;101408.88;;;14.88;74.67
25156;BME280;21913;52.456;13.634;2023-05-25T07:20:56;101412.38;;;14.88;74.75
25156;BME280;21913;52.456;13.634;2023-05-25T07:25:57;101423.66;;;14.87;74.60
25156;BME280;21913;52.456;13.634;2023-05-25T07:30:59;101421.91;;;14.88;74.97
25156;BME280;21913;52.456;13.634;2023-05-25T07:36:00;101428.88;;;14.87;74.94
25156;BME280;21913;52.456;13.634;2023-05-25T07:41:02;101425.41;;;14.87;74.93
25156;BME280;21913;52.456;13.634;2023-05-25T07:46:05;101441.91;;;14.87;74.73
25156;BME280;21913;52.456;13.634;2023-05-25T07:51:06;101438.44;;;14.87;74.98
25156;BME280;21913;52.456;13.634;2023-05-25T07:56:08;101441.91;;;14.87;74.85
25156;BME280;21913;52.456;13.634;2023-05-25T08:01:10;101437.56;;;14.86;74.95
25156;BME280;21913;52.456;13.634;2023-05-25T08:06:12;101439.28;;;14.86;74.82
25156;BME280;21913;52.456;13.634;2023-05-25T08:11:14;101439.28;;;14.86;74.83
25156;BME280;21913;52.456;13.634;2023-05-25T08:16:16;101444.50;;;14.86;74.70
25156;BME280;21913;52.456;13.634;2023-05-25T08:21:18;101449.72;;;14.86;74.67
25156;BME280;21913;52.456;13.634;2023-05-25T08:26:20;101460.16;;;14.86;74.79
25156;BME280;21913;52.456;13.634;2023-05-25T08:31:24;101460.16;;;14.86;74.86
25156;BME280;21913;52.456;13.634;2023-05-25T08:36:26;101454.94;;;14.86;74.79
25156;BME280;21913;52.456;13.634;2023-05-25T08:41:28;101456.66;;;14.85;74.78
25156;BME280;21913;52.456;13.634;2023-05-25T08:46:30;101461.00;;;14.85;74.89
25156;BME280;21913;52.456;13.634;2023-05-25T08:51:34;101460.16;;;14.86;75.10
25156;BME280;21913;52.456;13.634;2023-05-25T09:01:55;101470.56;;;14.86;75.00
25156;BME280;21913;52.456;13.634;2023-05-25T09:06:59;101466.22;;;14.85;74.81
25156;BME280;21913;52.456;13.634;2023-05-25T09:12:07;101468.81;;;14.85;74.91
25156;BME280;21913;52.456;13.634;2023-05-25T09:17:09;101472.28;;;14.84;74.89
25156;BME280;21913;52.456;13.634;2023-05-25T09:22:10;101469.69;;;14.85;74.94
25156;BME280;21913;52.456;13.634;2023-05-25T09:27:17;101472.31;;;14.85;74.80
25156;BME280;21913;52.456;13.634;2023-05-25T09:32:19;101473.16;;;14.84;74.82
25156;BME280;21913;52.456;13.634;2023-05-25T09:37:21;101484.47;;;14.85;75.01
25156;BME280;21913;52.456;13.634;2023-05-25T09:42:22;101476.66;;;14.85;74.92
25156;BME280;21913;52.456;13.634;2023-05-25T09:47:25;101479.25;;;14.85;74.78
25156;BME280;21913;52.456;13.634;2023-05-25T09:52:27;101482.69;;;14.84;74.76
25156;BME280;21913;52.456;13.634;2023-05-25T09:57:28;101478.38;;;14.84;74.74
25156;BME280;21913;52.456;13.634;2023-05-25T10:02:30;101479.25;;;14.85;74.72
25156;BME280;21913;52.456;13.634;2023-05-25T10:07:32;101477.50;;;14.85;74.59
25156;BME280;21913;52.456;13.634;2023-05-25T10:12:34;101485.34;;;14.85;74.75
25156;BME280;21913;52.456;13.634;2023-05-25T10:17:42;101488.81;;;14.86;74.66
25156;BME280;21913;52.456;13.634;2023-05-25T10:22:51;101493.16;;;14.87;74.66
25156;BME280;21913;52.456;13.634;2023-05-25T10:28:07;101490.53;;;14.85;74.72
25156;BME280;21913;52.456;13.634;2023-05-25T10:33:12;101499.22;;;14.86;74.60
25156;BME280;21913;52.456;13.634;2023-05-25T10:38:14;101494.88;;;14.86;74.63
25156;BME280;21913;52.456;13.634;2023-05-25T10:43:17;101494.88;;;14.85;74.56
25156;BME280;21913;52.456;13.634;2023-05-25T10:48:19;101496.63;;;14.84;74.86
25156;BME280;21913;52.456;13.634;2023-05-25T10:53:21;101488.81;;;14.84;74.73
25156;BME280;21913;52.456;13.634;2023-05-25T10:58:26;101489.66;;;14.85;74.62
25156;BME280;21913;52.456;13.634;2023-05-25T11:08:53;101487.91;;;14.84;74.57
25156;BME280;21913;52.456;13.634;2023-05-25T11:13:55;101487.91;;;14.84;74.74
25156;BME280;21913;52.456;13.634;2023-05-25T11:18:57;101486.16;;;14.83;74.83
25156;BME280;21913;52.456;13.634;2023-05-25T11:24:01;101482.69;;;14.84;74.76
25156;BME280;21913;52.456;13.634;2023-05-25T11:29:13;101482.69;;;14.84;74.76
25156;BME280;21913;52.456;13.634;2023-05-25T11:34:16;101478.34;;;14.83;74.49
25156;BME280;21913;52.456;13.634;2023-05-25T11:39:19;101476.63;;;14.83;74.75
25156;BME280;21913;52.456;13.634;2023-05-25T11:44:34;101466.19;;;14.83;74.75
25156;BME280;21913;52.456;13.634;2023-05-25T11:49:40;101457.50;;;14.83;74.57
25156;BME280;21913;52.456;13.634;2023-05-25T11:54:43;101465.31;;;14.83;74.63
25156;BME280;21913;52.456;13.634;2023-05-25T11:59:52;101454.03;;;14.84;74.79
25156;BME280;21913;52.456;13.634;2023-05-25T12:10:04;101459.25;;;14.84;74.74
25156;BME280;21913;52.456;13.634;2023-05-25T12:15:08;101454.03;;;14.82;74.49
25156;BME280;21913;52.456;13.634;2023-05-25T12:20:11;101454.91;;;14.83;74.63
25156;BME280;21913;52.456;13.634;2023-05-25T12:25:18;101460.09;;;14.83;74.57
25156;BME280;21913;52.456;13.634;2023-05-25T12:30:26;101460.97;;;14.83;74.58
25156;BME280;21913;52.456;13.634;2023-05-25T12:35:30;101461.84;;;14.84;74.71
25156;BME280;21913;52.456;13.634;2023-05-25T12:40:32;101459.25;;;14.82;74.72
25156;BME280;21913;52.456;13.634;2023-05-25T12:45:38;101458.38;;;14.83;74.63
25156;BME280;21913;52.456;13.634;2023-05-25T12:50:55;101452.28;;;14.83;74.67
25156;BME280;21913;52.456;13.634;2023-05-25T12:56:04;101448.81;;;14.82;74.56
25156;BME280;21913;52.456;13.634;2023-05-25T13:01:08;101447.94;;;14.82;74.77
25156;BME280;21913;52.456;13.634;2023-05-25T13:06:10;101441.88;;;14.83;74.82
25156;BME280;21913;52.456;13.634;2023-05-25T13:11:11;101447.94;;;14.82;74.65
25156;BME280;21913;52.456;13.634;2023-05-25T13:16:13;101435.78;;;14.82;74.62
25156;BME280;21913;52.456;13.634;2023-05-25T13:21:14;101434.91;;;14.83;74.71
25156;BME280;21913;52.456;13.634;2023-05-25T13:26:17;101439.28;;;14.83;74.67
25156;BME280;21913;52.456;13.634;2023-05-25T13:31:19;101430.59;;;14.82;74.73
25156;BME280;21913;52.456;13.634;2023-05-25T13:36:20;101427.97;;;14.82;74.74
25156;BME280;21913;52.456;13.634;2023-05-25T13:41:22;101428.84;;;14.83;74.71
25156;BME280;21913;52.456;13.634;2023-05-25T13:46:23;101425.38;;;14.82;74.74
25156;BME280;21913;52.456;13.634;2023-05-25T13:51:33;101431.44;;;14.81;74.61
25156;BME280;21913;52.456;13.634;2023-05-25T13:56:35;101423.63;;;14.83;74.77
25156;BME280;21913;52.456;13.634;2023-05-25T14:01:36;101427.09;;;14.82;74.85
25156;BME280;21913;52.456;13.634;2023-05-25T14:06:38;101427.09;;;14.82;74.72
25156;BME280;21913;52.456;13.634;2023-05-25T14:11:39;101416.69;;;14.82;74.72
25156;BME280;21913;52.456;13.634;2023-05-25T14:16:41;101406.25;;;14.82;74.65
25156;BME280;21913;52.456;13.634;2023-05-25T14:21:42;101401.94;;;14.81;74.76
25156;BME280;21913;52.456;13.634;2023-05-25T14:26:44;101395.84;;;14.82;74.75
25156;BME280;21913;52.456;13.634;2023-05-25T14:31:45;101395.84;;;14.80;74.93
25156;BME280;21913;52.456;13.634;2023-05-25T14:36:47;101396.72;;;14.79;74.64
25156;BME280;21913;52.456;13.634;2023-05-25T14:41:48;101399.31;;;14.82;74.66
25156;BME280;21913;52.456;13.634;2023-05-25T14:46:50;101395.84;;;14.82;74.71
25156;BME280;21913;52.456;13.634;2023-05-25T14:51:52;101393.22;;;14.82;74.76
25156;BME280;21913;52.456;13.634;2023-05-25T14:56:54;101390.63;;;14.82;74.94
25156;BME280;21913;52.456;13.634;2023-05-25T15:01:56;101390.63;;;14.82;74.88
25156;BME280;21913;52.456;13.634;2023-05-25T15:06:57;101382.81;;;14.82;74.91
25156;BME280;21913;52.456;13.634;2023-05-25T15:11:59;101380.22;;;14.82;74.96
25156;BME280;21913;52.456;13.634;2023-05-25T15:17:00;101381.94;;;14.81;74.84
25156;BME280;21913;52.456;13.634;2023-05-25T15:22:02;101388.91;;;14.82;74.83
25156;BME280;21913;52.456;13.634;2023-05-25T15:27:04;101387.16;;;14.83;74.92
25156;BME280;21913;52.456;13.634;2023-05-25T15:32:05;101386.28;;;14.82;74.93
25156;BME280;21913;52.456;13.634;2023-05-25T15:37:07;101377.59;;;14.82;74.72
25156;BME280;21913;52.456;13.634;2023-05-25T15:42:08;101380.22;;;14.82;74.78
25156;BME280;21913;52.456;13.634;2023-05-25T15:47:10;101374.13;;;14.80;74.68
25156;BME280;21913;52.456;13.634;2023-05-25T15:52:11;101368.91;;;14.81;74.70
25156;BME280;21913;52.456;13.634;2023-05-25T15:57:13;101368.91;;;14.80;74.96
25156;BME280;21913;52.456;13.634;2023-05-25T16:02:14;101373.25;;;14.81;74.78
25156;BME280;21913;52.456;13.634;2023-05-25T16:07:16;101360.25;;;14.81;74.81
25156;BME280;21913;52.456;13.634;2023-05-25T16:12:18;101361.09;;;14.80;74.74
25156;BME280;21913;52.456;13.634;2023-05-25T16:17:19;101361.97;;;14.82;74.99
25156;BME280;21913;52.456;13.634;2023-05-25T16:22:21;101354.13;;;14.79;75.02
25156;BME280;21913;52.456;13.634;2023-05-25T16:27:22;101349.81;;;14.81;74.86
25156;BME280;21913;52.456;13.634;2023-05-25T16:32:24;101358.50;;;14.80;75.13
25156;BME280;21913;52.456;13.634;2023-05-25T16:37:26;101364.59;;;14.80;74.82
25156;BME280;21913;52.456;13.634;2023-05-25T16:42:27;101362.84;;;14.81;74.74
25156;BME280;21913;52.456;13.634;2023-05-25T16:47:29;101360.25;;;14.79;75.05
25156;BME280;21913;52.456;13.634;2023-05-25T16:52:30;101357.63;;;14.81;74.97
25156;BME280;21913;52.456;13.634;2023-05-25T16:57:32;101345.47;;;14.80;75.08
25156;BME280;21913;52.456;13.634;2023-05-25T17:02:34;101342.88;;;14.80;74.90
25156;BME280;21913;52.456;13.634;2023-05-25T17:07:36;101354.13;;;14.79;74.82
25156;BME280;21913;52.456;13.634;2023-05-25T17:12:37;101349.81;;;14.79;75.00
25156;BME280;21913;52.456;13.634;2023-05-25T17:17:39;101350.69;;;14.80;75.18
25156;BME280;21913;52.456;13.634;2023-05-25T17:22:40;101341.97;;;14.78;75.04
25156;BME280;21913;52.456;13.634;2023-05-25T17:27:42;101343.72;;;14.79;74.78
25156;BME280;21913;52.456;13.634;2023-05-25T17:32:44;101343.72;;;14.79;74.87
25156;BME280;21913;52.456;13.634;2023-05-25T17:37:45;101338.50;;;14.79;75.11
25156;BME280;21913;52.456;13.634;2023-05-25T17:42:47;101348.91;;;14.79;74.84
25156;BME280;21913;52.456;13.634;2023-05-25T17:47:48;101354.13;;;14.79;74.74
25156;BME280;21913;52.456;13.634;2023-05-25T17:52:50;101356.72;;;14.79;75.25
25156;BME280;21913;52.456;13.634;2023-05-25T17:57:51;101349.81;;;14.79;74.93
25156;BME280;21913;52.456;13.634;2023-05-25T18:02:53;101346.31;;;14.79;74.97
25156;BME280;21913;52.456;13.634;2023-05-25T18:07:54;101354.13;;;14.77;74.98
25156;BME280;21913;52.456;13.634;2023-05-25T18:12:56;101348.06;;;14.78;75.09
25156;BME280;21913;52.456;13.634;2023-05-25T18:17:57;101358.47;;;14.78;75.06
25156;BME280;21913;52.456;13.634;2023-05-25T18:22:59;101360.22;;;14.78;74.90
25156;BME280;21913;52.456;13.634;2023-05-25T18:28:01;101357.59;;;14.78;74.98
25156;BME280;21913;52.456;13.634;2023-05-25T18:33:02;101358.47;;;14.78;75.16
25156;BME280;21913;52.456;13.634;2023-05-25T18:38:04;101353.25;;;14.78;75.17
25156;BME280;21913;52.456;13.634;2023-05-25T18:43:06;101359.34;;;14.77;74.83
25156;BME280;21913;52.456;13.634;2023-05-25T18:48:07;101359.34;;;14.77;75.11
25156;BME280;21913;52.456;13.634;2023-05-25T18:53:09;101357.59;;;14.78;75.08
25156;BME280;21913;52.456;13.634;2023-05-25T18:58:11;101350.66;;;14.77;75.21
25156;BME280;21913;52.456;13.634;2023-05-25T19:03:12;101360.22;;;14.78;74.97
25156;BME280;21913;52.456;13.634;2023-05-25T19:08:14;101355.88;;;14.77;75.09
25156;BME280;21913;52.456;13.634;2023-05-25T19:13:15;101366.28;;;14.77;75.00
25156;BME280;21913;52.456;13.634;2023-05-25T19:18:17;101364.56;;;14.76;75.15
25156;BME280;21913;52.456;13.634;2023-05-25T19:23:19;101371.50;;;14.77;74.92
25156;BME280;21913;52.456;13.634;2023-05-25T19:28:20;101364.56;;;14.76;74.93
25156;BME280;21913;52.456;13.634;2023-05-25T19:33:22;101379.31;;;14.77;75.05
25156;BME280;21913;52.456;13.634;2023-05-25T19:38:23;101379.31;;;14.75;75.04
25156;BME280;21913;52.456;13.634;2023-05-25T19:43:26;101383.66;;;14.76;75.14
25156;BME280;21913;52.456;13.634;2023-05-25T19:48:31;101388.88;;;14.76;75.11
25156;BME280;21913;52.456;13.634;2023-05-25T19:53:32;101390.63;;;14.76;75.16
25156;BME280;21913;52.456;13.634;2023-05-25T19:58:34;101392.34;;;14.77;75.00
25156;BME280;21913;52.456;13.634;2023-05-25T20:03:35;101401.91;;;14.76;75.04
25156;BME280;21913;52.456;13.634;2023-05-25T20:08:37;101401.03;;;14.76;75.07
25156;BME280;21913;52.456;13.634;2023-05-25T20:13:41;101407.97;;;14.77;75.01
25156;BME280;21913;52.456;13.634;2023-05-25T20:18:43;101411.44;;;14.76;75.21
25156;BME280;21913;52.456;13.634;2023-05-25T20:23:44;101421.88;;;14.76;75.23
25156;BME280;21913;52.456;13.634;2023-05-25T20:28:46;101414.94;;;14.76;75.11
25156;BME280;21913;52.456;13.634;2023-05-25T20:33:47;101414.94;;;14.76;75.22
25156;BME280;21913;52.456;13.634;2023-05-25T20:38:49;101417.53;;;14.76;74.98
25156;BME280;21913;52.456;13.634;2023-05-25T20:43:50;101414.06;;;14.76;75.17
25156;BME280;21913;52.456;13.634;2023-05-25T20:48:52;101426.22;;;14.75;75.05
25156;BME280;21913;52.456;13.634;2023-05-25T20:53:54;101440.97;;;14.75;75.08
25156;BME280;21913;52.456;13.634;2023-05-25T20:58:55;101442.72;;;14.76;75.10
25156;BME280;21913;52.456;13.634;2023-05-25T21:03:57;101444.44;;;14.75;75.16
25156;BME280;21913;52.456;13.634;2023-05-25T21:08:58;101452.28;;;14.75;75.26
25156;BME280;21913;52.456;13.634;2023-05-25T21:14:00;101451.41;;;14.75;75.23
25156;BME280;21913;52.456;13.634;2023-05-25T21:19:01;101446.19;;;14.75;75.13
25156;BME280;21913;52.456;13.634;2023-05-25T21:24:03;101452.28;;;14.73;75.31
25156;BME280;21913;52.456;13.634;2023-05-25T21:29:04;101456.63;;;14.75;75.09
25156;BME280;21913;52.456;13.634;2023-05-25T21:34:06;101455.75;;;14.74;75.19
25156;BME280;21913;52.456;13.634;2023-05-25T21:39:07;101457.47;;;14.73;75.32
25156;BME280;21913;52.456;13.634;2023-05-25T21:44:09;101465.28;;;14.73;75.35
25156;BME280;21913;52.456;13.634;2023-05-25T21:49:11;101465.28;;;14.73;75.27
25156;BME280;21913;52.456;13.634;2023-05-25T21:54:12;101475.72;;;14.73;75.31
25156;BME280;21913;52.456;13.634;2023-05-25T21:59:14;101467.88;;;14.72;75.25
25156;BME280;21913;52.456;13.634;2023-05-25T22:04:16;101486.13;;;14.73;75.27
25156;BME280;21913;52.456;13.634;2023-05-25T22:09:17;101486.13;;;14.73;75.24
25156;BME280;21913;52.456;13.634;2023-05-25T22:14:19;101489.56;;;14.72;75.26
25156;BME280;21913;52.456;13.634;2023-05-25T22:19:20;101484.38;;;14.72;75.03
25156;BME280;21913;52.456;13.634;2023-05-25T22:24:22;101494.78;;;14.72;75.12
25156;BME280;21913;52.456;13.634;2023-05-25T22:29:23;101493.91;;;14.72;74.89
25156;BME280;21913;52.456;13.634;2023-05-25T22:34:25;101488.75;;;14.73;75.12
25156;BME280;21913;52.456;13.634;2023-05-25T22:39:26;101482.63;;;14.73;75.15
25156;BME280;21913;52.456;13.634;2023-05-25T22:44:28;101494.78;;;14.72;74.93
25156;BME280;21913;52.456;13.634;2023-05-25T22:49:29;101497.41;;;14.72;75.08
25156;BME280;21913;52.456;13.634;2023-05-25T22:54:32;101496.56;;;14.73;75.15
25156;BME280;21913;52.456;13.634;2023-05-25T22:59:33;101505.22;;;14.72;74.92
25156;BME280;21913;52.456;13.634;2023-05-25T23:04:35;101500.88;;;14.71;74.98
25156;BME280;21913;52.456;13.634;2023-05-25T23:09:36;101498.25;;;14.71;74.93
25156;BME280;21913;52.456;13.634;2023-05-25T23:14:38;101500.88;;;14.71;74.84
25156;BME280;21913;52.456;13.634;2023-05-25T23:19:39;101494.78;;;14.71;74.85
25156;BME280;21913;52.456;13.634;2023-05-25T23:24:41;101497.41;;;14.71;74.80
25156;BME280;21913;52.456;13.634;2023-05-25T23:29:42;101496.53;;;14.72;74.89
25156;BME280;21913;52.456;13.634;2023-05-25T23:34:44;101497.41;;;14.71;74.78
25156;BME280;21913;52.456;13.634;2023-05-25T23:39:45;101497.41;;;14.71;74.74
25156;BME280;21913;52.456;13.634;2023-05-25T23:44:47;101498.25;;;14.71;74.96
25156;BME280;21913;52.456;13.634;2023-05-25T23:49:48;101496.53;;;14.70;74.75
25156;BME280;21913;52.456;13.634;2023-05-25T23:54:50;101495.66;;;14.71;74.80
25156;BME280;21913;52.456;13.634;2023-05-25T23:59:51;101497.41;;;14.71;74.81
